Keyes, OK (73947)

2:20 PM CDT on July 26, 2014 (GMT -0500)
Fort Wiegers (KKSELKHA2) Elev 3554 ft | 37.04 °N, 101.97 °W | Change Station

Current weather conditions updated 9 seconds ago

Clear
Clear
97.2 °F
Feels Like 98 °F
N
4.0
Wind Variable Wind from ENE
Gusts 12.0 mph

Today is forecast to be Cooler than yesterday.

Today
High -- | Low -- °F
--% Chance of Precip.
Yesterday
High -- | Low -- °F
Precip. -- in
6:49 AM 9:00 PM
Waning Crescent, 0% visible
Pressure 29.77 in
Visibility 10.0 miles
Clouds Clear
Heat Index 98 °F
Dew Point 62 °F
Humidity 31%
Rainfall 0.00 in
Snow Depth Not available.
UV 12 out of 12
Pollen 5.30 out of 12
Air Quality Not available.
Flu Activity Not available.
METAR KGUY 261853Z AUTO 20011KT 10SM CLR 38/12 A2995 RMK AO2 SLP081 T03830117

More Conditions Fewer Conditions

Pressure 29.77 in
Visibility 10.0 miles
Clouds Clear
Heat Index 98 °F
Dew Point 62 °F
Humidity 31%
Rainfall 0.00 in
Snow Depth Not available.
UV 12 out of 12
Pollen 5.30 out of 12
Air Quality Not available.
Flu Activity Not available.
METAR KGUY 261853Z AUTO 20011KT 10SM CLR 38/12 A2995 RMK AO2 SLP081 T03830117

More Conditions Fewer Conditions

10-Day Weather Forecast

Almanac

Astronomy

Jul. 26, 2014 Rise Set
Actual Time 6:49 AM CDT 9:00 PM CDT
Civil Twilight 6:20 AM CDT 9:29 PM CDT
Nautical Twilight 5:45 AM CDT 10:05 PM CDT
Astronomical Twilight 5:06 AM CDT 10:43 PM CDT
Moon 6:42 AM CDT 8:39 PM CDT
Length of Visible Light 15h 08m
Length of Day
14h 10m
Tomorrow will be 1m 36s shorter.
Waning Crescent, 0% of the Moon is Illuminated
Today
Waning Crescent
Jul 26
New
Aug 3
First Quarter
Aug 10
Full
Aug 17
Last Quarter

Today's Extremes

State Highs State Lows

Community

WunderPhotos

Upload Photos

1,737,682 photos uploaded!

Nearby

Snow Depth

Station Depth Elevation
No new snow has been reported.

Earthquake Activity

City Distance Mag. Time & Date
No recent earthquake activity has been reported nearby.
Minimum magnitude displayed is 2.5.

Coastal Water Temperatures

Place Temperature
No Stations Reporting

Nearby Weather Stations

Station Location Temp. Heat Index Dew Point Humidity Wind Precip. Elev Updated Type
Fort Wiegers, Elkhart, KS 97.2 °F 98 °F 62 °F 31% ENE  at  4.0 mph 0.00 in / hr 3554 ft 2:20 PM CDT Rapid Fire

Show More Stations Show Fewer Stations